X  CloseMetar Aviation Weather Data     KRYV Watertown Municipal

Temperature

46°F Temperature

34°F Dewpoint

62% Humidity



Wind

13 MPH

21 KM/H

 6 M/S

11 KTS



310°
North West
Current Conditions

Clear Clear
Pressure 1008.42 (hPa) - 29.78 (in)
Visibility 10 (mi) - 16.1 (km)
Airport
Airport-code KRYV

Location Watertown Municipal 18 (mi)

Metar:
KRYV 261215Z AUTO 31011G15KT 10SM CLR 08/01 A2978 RMK AO2 T00800005

Time: 04-26-2019 7:15